createdAt,value
2022-08-28T00:00:45.187Z,78.07
2022-08-28T00:03:32.335Z,78.65
2022-08-28T00:06:19.050Z,78.72
2022-08-28T00:09:05.299Z,79.04
2022-08-28T00:11:50.951Z,79.03
2022-08-28T00:14:36.829Z,79.12
2022-08-28T00:17:22.282Z,79.30
2022-08-28T00:20:10.332Z,78.91
2022-08-28T00:22:56.650Z,79.31
2022-08-28T00:25:42.459Z,79.16
2022-08-28T00:28:28.025Z,79.22
2022-08-28T00:31:13.608Z,78.94
2022-08-28T00:33:59.102Z,79.27
2022-08-28T00:36:44.638Z,79.70
2022-08-28T00:39:30.212Z,79.79
2022-08-28T00:42:15.660Z,79.52
2022-08-28T00:45:01.354Z,79.83
2022-08-28T00:47:47.262Z,79.62
2022-08-28T00:50:56.857Z,79.90
2022-08-28T00:53:46.379Z,79.84
2022-08-28T00:56:33.133Z,79.87
2022-08-28T00:59:21.691Z,79.85
2022-08-28T01:02:08.240Z,79.79
2022-08-28T01:04:55.249Z,79.76
2022-08-28T01:07:41.190Z,80.05
2022-08-28T01:10:30.712Z,79.85
2022-08-28T01:13:18.162Z,79.84
2022-08-28T01:16:05.580Z,79.74
2022-08-28T01:18:53.051Z,79.79
2022-08-28T01:22:00.475Z,79.77
2022-08-28T01:24:49.642Z,80.08
2022-08-28T01:27:36.629Z,79.92
2022-08-28T01:30:24.268Z,80.17
2022-08-28T01:33:10.280Z,79.76
2022-08-28T01:35:57.883Z,79.85
2022-08-28T01:38:46.977Z,80.16
2022-08-28T01:41:33.475Z,80.23
2022-08-28T01:44:24.392Z,79.65
2022-08-28T01:47:09.884Z,79.79
2022-08-28T01:49:55.359Z,80.10
2022-08-28T01:52:41.739Z,80.79
2022-08-28T01:55:29.487Z,80.93
2022-08-28T01:58:16.211Z,81.79
2022-08-28T02:01:02.179Z,81.92
2022-08-28T02:03:49.060Z,82.36
2022-08-28T02:06:34.805Z,81.84
2022-08-28T02:09:20.399Z,82.19
2022-08-28T02:12:06.784Z,82.41
2022-08-28T02:14:53.187Z,82.84
2022-08-28T02:17:38.912Z,82.44
2022-08-28T02:20:25.248Z,82.32
2022-08-28T02:23:11.258Z,82.11
2022-08-28T02:25:57.072Z,81.75
2022-08-28T02:28:43.404Z,81.59
2022-08-28T02:31:29.128Z,81.57
2022-08-28T02:34:14.900Z,81.58
2022-08-28T02:37:00.762Z,81.56
2022-08-28T02:39:46.447Z,81.74
2022-08-28T02:42:32.194Z,81.74
2022-08-28T02:45:19.360Z,81.65
2022-08-28T02:48:05.072Z,81.59
2022-08-28T02:51:02.967Z,81.73
2022-08-28T02:53:50.571Z,81.22
2022-08-28T02:56:36.057Z,81.69
2022-08-28T02:59:22.385Z,81.46
2022-08-28T03:02:08.260Z,81.32
2022-08-28T03:04:54.486Z,81.30
2022-08-28T03:07:40.452Z,81.22
2022-08-28T03:10:26.717Z,81.47
2022-08-28T03:13:26.514Z,81.17
2022-08-28T03:16:13.021Z,81.27
2022-08-28T03:18:58.649Z,81.35
2022-08-28T03:21:44.284Z,81.14
2022-08-28T03:24:30.005Z,81.33
2022-08-28T03:27:15.559Z,81.33
2022-08-28T03:30:02.698Z,81.00
2022-08-28T03:32:49.463Z,81.07
2022-08-28T03:35:34.859Z,81.08
2022-08-28T03:38:21.515Z,81.54
2022-08-28T03:41:13.611Z,81.35
2022-08-28T03:44:01.126Z,81.41
2022-08-28T03:46:46.731Z,81.37
2022-08-28T03:49:32.860Z,81.79
2022-08-28T03:52:18.448Z,81.28
2022-08-28T03:55:05.522Z,81.19
2022-08-28T03:57:51.618Z,81.40
2022-08-28T04:00:37.784Z,81.35
2022-08-28T04:03:23.644Z,80.96
2022-08-28T04:06:09.398Z,81.23
2022-08-28T04:08:55.380Z,80.99
2022-08-28T04:11:45.812Z,81.23
2022-08-28T04:14:31.296Z,81.29
2022-08-28T04:17:16.961Z,81.12
2022-08-28T04:20:02.386Z,81.18
2022-08-28T04:22:49.044Z,81.27
2022-08-28T04:25:40.972Z,81.01
2022-08-28T04:28:27.458Z,81.07
2022-08-28T04:31:13.477Z,81.00
2022-08-28T04:34:00.948Z,80.67
2022-08-28T04:36:46.829Z,81.35
2022-08-28T04:39:33.166Z,81.29
2022-08-28T04:42:19.337Z,81.28
2022-08-28T04:45:06.450Z,81.15
2022-08-28T04:47:52.356Z,81.12
2022-08-28T04:50:43.740Z,81.18
2022-08-28T04:53:29.740Z,80.84
2022-08-28T04:56:15.971Z,81.02
2022-08-28T04:59:02.239Z,80.91
2022-08-28T05:01:47.819Z,80.98
2022-08-28T05:04:33.593Z,81.07
2022-08-28T05:07:19.041Z,81.05
2022-08-28T05:10:05.162Z,80.92
2022-08-28T05:12:51.379Z,80.92
2022-08-28T05:15:40.542Z,80.87
2022-08-28T05:18:26.008Z,80.70
2022-08-28T05:21:20.640Z,80.66
2022-08-28T05:24:07.469Z,80.65
2022-08-28T05:26:53.471Z,80.71
2022-08-28T05:29:39.726Z,80.81
2022-08-28T05:32:24.970Z,80.56
2022-08-28T05:35:10.709Z,80.41
2022-08-28T05:37:56.166Z,80.47
2022-08-28T05:40:47.553Z,80.20
2022-08-28T05:43:33.284Z,80.63
2022-08-28T05:46:20.233Z,80.45
2022-08-28T05:49:09.791Z,80.17
2022-08-28T05:51:55.970Z,80.26
2022-08-28T05:54:41.683Z,80.16
2022-08-28T05:57:27.595Z,80.42
2022-08-28T06:00:13.813Z,80.37
2022-08-28T06:02:59.469Z,80.34
2022-08-28T06:05:45.190Z,79.89
2022-08-28T06:08:31.461Z,80.11
2022-08-28T06:11:20.639Z,80.19
2022-08-28T06:14:10.982Z,79.73
2022-08-28T06:16:57.019Z,79.72
2022-08-28T06:19:42.714Z,79.70
2022-08-28T06:22:28.090Z,79.98
2022-08-28T06:25:14.303Z,79.70
2022-08-28T06:28:00.114Z,79.90
2022-08-28T06:31:08.907Z,79.50
2022-08-28T06:33:51.846Z,79.79
2022-08-28T06:36:41.964Z,79.94
2022-08-28T06:39:27.620Z,79.82
2022-08-28T06:42:13.050Z,80.23
2022-08-28T06:44:58.741Z,79.87
2022-08-28T06:47:44.105Z,79.72
2022-08-28T06:50:29.831Z,79.52
2022-08-28T06:53:17.154Z,79.79
2022-08-28T06:56:07.720Z,79.73
2022-08-28T06:58:55.381Z,79.37
2022-08-28T07:01:41.314Z,79.92
2022-08-28T07:04:27.828Z,79.99
2022-08-28T07:07:31.276Z,79.54
2022-08-28T07:10:18.114Z,79.13
2022-08-28T07:13:05.828Z,78.85
2022-08-28T07:15:52.023Z,78.99
2022-08-28T07:18:38.130Z,78.99
2022-08-28T07:21:23.982Z,79.02
2022-08-28T07:24:11.448Z,78.63
2022-08-28T07:26:57.016Z,78.71
2022-08-28T07:29:42.549Z,79.20
2022-08-28T07:32:28.906Z,79.33
2022-08-28T07:35:14.356Z,79.71
2022-08-28T07:38:00.469Z,79.80
2022-08-28T07:40:46.038Z,79.65
2022-08-28T07:43:49.832Z,79.71
2022-08-28T07:46:35.680Z,79.86
2022-08-28T07:49:21.696Z,80.44
2022-08-28T07:52:09.179Z,80.04
2022-08-28T07:54:56.849Z,79.71
2022-08-28T07:57:43.501Z,79.66
2022-08-28T08:00:29.200Z,79.03
2022-08-28T08:03:15.164Z,79.37
2022-08-28T08:06:03.468Z,79.15
2022-08-28T08:08:49.559Z,79.48
2022-08-28T08:11:35.375Z,79.67
2022-08-28T08:14:21.066Z,79.83
2022-08-28T08:17:07.681Z,79.65
2022-08-28T08:19:55.183Z,79.78
2022-08-28T08:22:40.612Z,80.01
2022-08-28T08:25:26.322Z,79.60
2022-08-28T08:28:11.802Z,80.22
2022-08-28T08:31:08.603Z,79.47
2022-08-28T08:33:57.427Z,79.70
2022-08-28T08:36:43.427Z,79.75
2022-08-28T08:39:29.556Z,79.62
2022-08-28T08:42:27.505Z,79.91
2022-08-28T08:45:21.649Z,80.11
2022-08-28T08:48:13.967Z,79.66
2022-08-28T08:51:11.550Z,79.67
2022-08-28T08:54:08.168Z,79.61
2022-08-28T08:56:56.122Z,79.56
2022-08-28T08:59:42.597Z,79.61
2022-08-28T09:02:37.052Z,79.89
2022-08-28T09:05:37.930Z,79.38
2022-08-28T09:08:41.982Z,79.22
2022-08-28T09:11:46.490Z,78.75
2022-08-28T09:15:05.824Z,78.19
2022-08-28T09:18:03.753Z,78.28
2022-08-28T09:20:51.851Z,77.66
2022-08-28T09:23:37.287Z,77.87
2022-08-28T09:26:25.083Z,77.60
2022-08-28T09:29:19.141Z,77.87
2022-08-28T09:32:33.709Z,77.69
2022-08-28T09:35:29.389Z,77.75
2022-08-28T09:38:21.263Z,77.33
2022-08-28T09:41:33.401Z,77.12
2022-08-28T09:44:19.136Z,76.89
2022-08-28T09:47:04.611Z,76.12
2022-08-28T09:49:50.409Z,76.03
2022-08-28T09:52:36.235Z,75.59
2022-08-28T09:55:35.303Z,76.05
2022-08-28T09:58:21.829Z,75.26
2022-08-28T10:01:36.585Z,75.59
2022-08-28T10:04:42.162Z,74.91
2022-08-28T10:07:41.472Z,75.09
2022-08-28T10:29:20.295Z,75.30
2022-08-28T10:38:37.918Z,74.80
2022-08-28T10:42:03.073Z,74.33
2022-08-28T10:44:58.646Z,74.54
2022-08-28T11:14:02.994Z,73.52
2022-08-28T11:16:50.293Z,73.22
2022-08-28T11:28:25.352Z,72.60
2022-08-28T12:35:28.006Z,69.70
2022-08-28T12:47:25.627Z,70.17
2022-08-28T12:50:33.237Z,70.00
2022-08-28T13:42:07.040Z,71.29
2022-08-28T15:10:22.096Z,65.99
2022-08-28T15:38:49.487Z,64.48
2022-08-28T15:58:54.783Z,63.79
2022-08-28T16:01:41.009Z,63.53
2022-08-28T16:04:27.068Z,63.19
2022-08-28T16:07:13.433Z,63.50
2022-08-28T16:09:59.744Z,63.35
2022-08-28T16:12:47.861Z,63.46
